Time;durP1;ratioP1;P1;durP2;ratioP2;P2;SDS_P1;SDS_P2;PMS_P1;PMS_P2;Temp;Humidity;BMP_temperature;BMP_pressure;BME280_temperature;BME280_humidity;BME280_pressure;Samples;Min_cycle;Max_cycle;Signal;HPM_P1;HPM_P2
2024/01/04 00:01:13;;;;;;;0.90;0.50;;;13.40;42.20;;;;;;5032379;28;20189;-48
2024/01/04 00:03:39;;;;;;;0.90;0.50;;;13.30;42.10;;;;;;5035382;28;20174;-49
2024/01/04 00:06:06;;;;;;;0.90;0.40;;;13.40;41.90;;;;;;5035255;28;20405;-51
2024/01/04 00:08:31;;;;;;;1.00;0.63;;;13.40;41.70;;;;;;5035099;28;20197;-48
2024/01/04 00:10:58;;;;;;;0.90;0.40;;;13.40;41.70;;;;;;5035224;28;20197;-48
2024/01/04 00:13:24;;;;;;;1.00;0.63;;;13.20;41.70;;;;;;5035235;28;20196;-48
2024/01/04 00:15:50;;;;;;;0.90;0.50;;;13.20;41.70;;;;;;5035206;28;20405;-54
2024/01/04 00:18:16;;;;;;;1.13;0.50;;;13.10;41.90;;;;;;5034749;28;20227;-48
2024/01/04 00:20:42;;;;;;;0.90;0.40;;;13.10;41.70;;;;;;5034956;28;20178;-51
2024/01/04 00:23:08;;;;;;;0.90;0.50;;;13.20;41.70;;;;;;5034839;28;20170;-52
2024/01/04 00:25:34;;;;;;;1.10;0.43;;;13.00;41.80;;;;;;5035050;28;20185;-50
2024/01/04 00:28:00;;;;;;;1.03;0.83;;;13.00;41.80;;;;;;5034937;28;20186;-51
2024/01/04 00:30:26;;;;;;;0.90;0.47;;;13.00;41.90;;;;;;5034476;28;20198;-47
2024/01/04 00:32:51;;;;;;;1.33;0.93;;;13.00;41.90;;;;;;5034744;28;20181;-50
2024/01/04 00:35:17;;;;;;;1.27;0.83;;;13.00;41.50;;;;;;5034678;28;20224;-51
2024/01/04 00:37:43;;;;;;;3.60;0.70;;;13.10;41.50;;;;;;5034541;28;20919;-48
2024/01/04 00:40:09;;;;;;;1.00;0.73;;;13.10;41.50;;;;;;5034092;28;20594;-49
2024/01/04 00:42:36;;;;;;;0.90;0.40;;;13.20;41.40;;;;;;5034675;28;20185;-51
2024/01/04 00:45:02;;;;;;;0.90;0.43;;;13.20;41.30;;;;;;5034417;28;20841;-48
2024/01/04 00:47:28;;;;;;;0.90;0.50;;;13.20;41.30;;;;;;5034558;28;20256;-49
2024/01/04 00:49:53;;;;;;;1.00;0.73;;;13.20;41.20;;;;;;5034137;28;20205;-52
2024/01/04 00:52:19;;;;;;;0.90;0.47;;;13.30;41.30;;;;;;5034409;28;20174;-47
2024/01/04 00:54:45;;;;;;;0.90;0.50;;;13.30;41.00;;;;;;5034390;28;20221;-48
2024/01/04 00:57:10;;;;;;;0.87;0.30;;;13.30;41.30;;;;;;5034230;28;20190;-53
2024/01/04 00:59:36;;;;;;;0.90;0.40;;;13.20;41.50;;;;;;5034097;28;20251;-48
2024/01/04 01:02:02;;;;;;;0.90;0.30;;;13.30;41.20;;;;;;5034123;28;20201;-50
2024/01/04 01:04:28;;;;;;;0.90;0.50;;;13.20;41.60;;;;;;5034257;28;20178;-48
2024/01/04 01:06:53;;;;;;;1.70;1.60;;;13.20;41.60;;;;;;5034257;28;20921;-49
2024/01/04 01:09:19;;;;;;;0.90;0.37;;;13.20;41.80;;;;;;5033811;28;20206;-49
2024/01/04 01:11:45;;;;;;;0.90;0.50;;;13.20;42.00;;;;;;5033987;28;20719;-47
2024/01/04 01:14:11;;;;;;;0.90;0.40;;;13.20;41.70;;;;;;5033000;28;20952;-47
2024/01/04 01:16:36;;;;;;;0.90;0.50;;;13.20;41.80;;;;;;5033848;28;20269;-52
2024/01/04 01:19:03;;;;;;;0.90;0.40;;;13.30;41.70;;;;;;5033558;28;20202;-47
2024/01/04 01:21:28;;;;;;;1.00;0.55;;;13.20;41.70;;;;;;5029225;28;20166;-48
2024/01/04 01:23:54;;;;;;;0.90;0.53;;;13.20;42.00;;;;;;5013986;28;20206;-52
2024/01/04 01:26:20;;;;;;;0.90;0.40;;;13.20;41.90;;;;;;5014050;28;20449;-49
2024/01/04 01:28:46;;;;;;;0.85;0.20;;;13.10;42.20;;;;;;5013852;28;20205;-48
2024/01/04 01:31:12;;;;;;;1.17;0.80;;;13.00;42.10;;;;;;5013886;28;20265;-51
2024/01/04 01:33:42;;;;;;;0.90;0.40;;;13.10;42.40;;;;;;5014075;28;20239;-46
2024/01/04 01:36:09;;;;;;;0.90;0.50;;;13.00;42.40;;;;;;5013738;28;20612;-46
2024/01/04 01:38:35;;;;;;;0.93;0.45;;;12.90;42.80;;;;;;5013581;28;20519;-51
2024/01/04 01:41:00;;;;;;;1.10;0.82;;;13.10;42.60;;;;;;5013876;28;20229;-50
2024/01/04 01:43:26;;;;;;;0.87;0.27;;;13.10;42.10;;;;;;5013628;28;20179;-47
2024/01/04 01:45:52;;;;;;;0.90;0.40;;;13.10;42.20;;;;;;5013642;28;20170;-50
2024/01/04 01:48:18;;;;;;;0.90;0.50;;;13.20;41.80;;;;;;5013420;28;20174;-50
2024/01/04 01:50:44;;;;;;;1.00;0.70;;;13.40;41.70;;;;;;5013273;28;20186;-47
2024/01/04 01:53:10;;;;;;;0.90;0.53;;;13.40;41.20;;;;;;5013507;28;20179;-48
2024/01/04 01:55:36;;;;;;;0.90;0.40;;;13.40;41.30;;;;;;5013593;28;20174;-49
2024/01/04 01:58:03;;;;;;;1.45;0.50;;;13.40;41.10;;;;;;4995689;28;20297;-47
2024/01/04 02:00:29;;;;;;;3.05;0.93;;;13.40;41.40;;;;;;5013027;28;20688;-54
2024/01/04 02:02:56;;;;;;;0.90;0.40;;;13.40;41.20;;;;;;5013372;28;20210;-49
2024/01/04 02:05:22;;;;;;;2.67;0.75;;;13.50;41.20;;;;;;5013308;28;20202;-48
2024/01/04 02:07:48;;;;;;;0.90;0.30;;;13.50;40.90;;;;;;5013234;28;20190;-49
2024/01/04 02:10:14;;;;;;;0.90;0.52;;;13.40;41.10;;;;;;5012840;28;20452;-48
2024/01/04 02:12:40;;;;;;;0.90;0.50;;;13.50;40.90;;;;;;5013043;28;20552;-49
2024/01/04 02:15:07;;;;;;;2.00;0.47;;;13.30;41.20;;;;;;5013106;28;20187;-49
2024/01/04 02:17:34;;;;;;;1.00;0.65;;;13.30;41.40;;;;;;5026204;28;20229;-53
2024/01/04 02:20:00;;;;;;;0.95;0.50;;;13.40;41.10;;;;;;5032194;28;20194;-48
2024/01/04 02:22:25;;;;;;;0.90;0.40;;;13.40;41.00;;;;;;5032733;28;20180;-48
2024/01/04 02:24:51;;;;;;;1.00;0.60;;;13.40;40.90;;;;;;5032455;28;20253;-52
2024/01/04 02:27:17;;;;;;;1.10;0.60;;;13.40;40.60;;;;;;5032623;28;20197;-51
2024/01/04 02:29:43;;;;;;;0.98;0.50;;;13.40;40.40;;;;;;5032288;28;20198;-47
2024/01/04 02:32:09;;;;;;;1.00;0.65;;;13.40;40.80;;;;;;5032464;28;20182;-48
2024/01/04 02:34:35;;;;;;;1.00;0.60;;;13.30;40.70;;;;;;5032414;28;20539;-51
2024/01/04 02:37:00;;;;;;;0.90;0.50;;;13.40;40.50;;;;;;5032322;28;20206;-46
2024/01/04 02:39:26;;;;;;;1.00;0.70;;;13.40;40.50;;;;;;5032172;28;20241;-46
2024/01/04 02:41:52;;;;;;;1.00;0.67;;;13.40;40.50;;;;;;5032302;28;20185;-52
2024/01/04 02:44:18;;;;;;;0.90;0.40;;;13.40;40.30;;;;;;5032072;28;20417;-52
2024/01/04 02:46:43;;;;;;;1.00;0.63;;;13.40;40.20;;;;;;5032427;28;20174;-47
2024/01/04 02:49:09;;;;;;;1.00;0.80;;;13.40;40.30;;;;;;5031992;28;20683;-49
2024/01/04 02:51:35;;;;;;;1.00;0.60;;;13.40;40.20;;;;;;5032285;28;20869;-50
2024/01/04 02:54:01;;;;;;;0.90;0.40;;;13.40;40.30;;;;;;5032132;28;20657;-46
2024/01/04 02:56:26;;;;;;;0.93;0.40;;;13.40;40.10;;;;;;5032262;28;20571;-51
2024/01/04 02:58:52;;;;;;;0.80;0.30;;;13.40;39.80;;;;;;5031829;28;20252;-48
2024/01/04 03:01:22;;;;;;;0.93;0.57;;;13.40;40.20;;;;;;5032005;28;20651;-53
2024/01/04 03:03:51;;;;;;;0.90;0.40;;;13.40;40.00;;;;;;5031995;28;20174;-52
2024/01/04 03:06:30;;;;;;;0.90;0.40;;;13.40;40.20;;;;;;5032196;28;20186;-46
2024/01/04 03:08:56;;;;;;;1.00;0.70;;;13.50;40.00;;;;;;5031874;28;20197;-46
2024/01/04 03:11:22;;;;;;;0.90;0.50;;;13.50;39.70;;;;;;5032000;28;20178;-50
2024/01/04 03:13:47;;;;;;;0.90;0.50;;;13.40;40.00;;;;;;5032040;28;20488;-48
2024/01/04 03:16:20;;;;;;;2.42;0.70;;;13.40;40.00;;;;;;5031787;28;20261;-49
2024/01/04 03:18:46;;;;;;;0.90;0.40;;;13.40;40.30;;;;;;5031498;28;20285;-49
2024/01/04 03:21:13;;;;;;;1.00;0.60;;;13.30;40.20;;;;;;5031829;28;20198;-48
2024/01/04 03:23:39;;;;;;;0.90;0.40;;;13.30;40.40;;;;;;5031865;28;21052;-50
2024/01/04 03:26:04;;;;;;;1.00;0.80;;;13.30;40.40;;;;;;5031837;28;20265;-50
2024/01/04 03:28:30;;;;;;;2.60;0.97;;;13.20;40.50;;;;;;5031458;28;20655;-48
2024/01/04 03:30:56;;;;;;;0.90;0.37;;;13.20;40.80;;;;;;5031776;28;20260;-50
2024/01/04 03:33:22;;;;;;;1.00;0.63;;;13.20;40.80;;;;;;5004143;28;20580;-50
2024/01/04 03:35:47;;;;;;;1.00;0.80;;;13.20;41.10;;;;;;5019281;28;20174;-49
2024/01/04 03:38:13;;;;;;;0.90;0.40;;;13.20;40.90;;;;;;5035744;28;20709;-48
2024/01/04 03:40:39;;;;;;;1.30;0.50;;;13.30;40.90;;;;;;5035544;28;20174;-52
2024/01/04 03:43:04;;;;;;;1.00;0.60;;;13.30;40.80;;;;;;5035513;28;20667;-51
2024/01/04 03:45:31;;;;;;;0.90;0.50;;;13.30;40.80;;;;;;5035809;28;20166;-48
2024/01/04 03:47:58;;;;;;;0.90;0.45;;;13.20;40.90;;;;;;5035496;28;20304;-50
2024/01/04 03:50:23;;;;;;;0.90;0.47;;;13.30;40.80;;;;;;5035401;28;20323;-47
2024/01/04 03:52:49;;;;;;;0.90;0.37;;;13.40;40.40;;;;;;5035600;28;20492;-52
2024/01/04 03:55:15;;;;;;;0.90;0.50;;;13.50;40.20;;;;;;5035285;28;20188;-53
2024/01/04 03:57:44;;;;;;;2.17;1.37;;;13.50;40.10;;;;;;5029349;28;20206;-49
2024/01/04 04:00:10;;;;;;;0.82;0.30;;;13.40;39.90;;;;;;5025173;28;20482;-49
2024/01/04 04:02:36;;;;;;;1.00;0.77;;;13.40;39.90;;;;;;5035315;28;20205;-53
2024/01/04 04:05:02;;;;;;;0.90;0.40;;;13.40;40.00;;;;;;5035531;28;20178;-47
2024/01/04 04:07:28;;;;;;;0.93;0.53;;;13.40;40.00;;;;;;5035434;28;20216;-52
2024/01/04 04:09:54;;;;;;;1.00;0.60;;;13.40;39.80;;;;;;5035172;28;20461;-52
2024/01/04 04:12:20;;;;;;;0.90;0.50;;;13.40;39.70;;;;;;5035069;28;20269;-47
2024/01/04 04:14:46;;;;;;;0.90;0.50;;;13.30;40.20;;;;;;5034988;28;20276;-52
2024/01/04 04:17:14;;;;;;;0.90;0.40;;;13.20;40.30;;;;;;5034800;28;20228;-53
2024/01/04 04:19:39;;;;;;;1.00;0.65;;;13.10;40.60;;;;;;5034876;28;20190;-50
2024/01/04 04:22:05;;;;;;;0.90;0.40;;;13.00;41.70;;;;;;5034810;28;20180;-50
2024/01/04 04:24:31;;;;;;;0.90;0.50;;;13.10;41.10;;;;;;5035144;28;20198;-47
2024/01/04 04:26:57;;;;;;;0.90;0.50;;;13.00;41.20;;;;;;5034804;28;20674;-52
2024/01/04 04:29:22;;;;;;;0.90;0.40;;;13.00;41.30;;;;;;5034491;28;20452;-52
2024/01/04 04:31:48;;;;;;;0.90;0.45;;;13.00;41.50;;;;;;5034843;28;20662;-48
2024/01/04 04:34:14;;;;;;;0.90;0.40;;;13.00;42.20;;;;;;5034767;28;20189;-47
2024/01/04 04:36:40;;;;;;;0.90;0.30;;;13.00;42.60;;;;;;5034666;28;20197;-52
2024/01/04 04:39:07;;;;;;;1.00;0.60;;;13.00;43.50;;;;;;5034292;28;20659;-48
2024/01/04 04:41:33;;;;;;;0.88;0.38;;;13.00;44.10;;;;;;5034558;28;20773;-48
2024/01/04 04:43:58;;;;;;;1.20;0.87;;;12.90;44.80;;;;;;5034413;28;20195;-51
2024/01/04 04:46:25;;;;;;;0.97;0.50;;;12.90;45.10;;;;;;5034616;28;20178;-47
2024/01/04 04:48:55;;;;;;;0.90;0.40;;;12.70;45.90;;;;;;5034340;28;20227;-50
2024/01/04 04:51:27;;;;;;;0.90;0.40;;;12.70;46.10;;;;;;5034620;28;20184;-50
2024/01/04 04:53:53;;;;;;;1.00;0.73;;;12.70;46.50;;;;;;5034384;28;20253;-49
2024/01/04 04:56:19;;;;;;;0.80;0.30;;;12.70;46.20;;;;;;5034120;28;20313;-53
2024/01/04 04:58:44;;;;;;;0.90;0.47;;;12.60;46.90;;;;;;5034148;28;20201;-45
2024/01/04 05:01:10;;;;;;;1.10;0.57;;;12.60;46.70;;;;;;5034304;28;20647;-47
2024/01/04 05:03:37;;;;;;;0.95;0.50;;;12.60;46.40;;;;;;5016540;28;20174;-50
2024/01/04 05:06:03;;;;;;;0.90;0.50;;;12.70;46.80;;;;;;5033675;28;20178;-47
2024/01/04 05:08:29;;;;;;;0.90;0.60;;;12.60;47.00;;;;;;5014193;28;20209;-47
2024/01/04 05:10:55;;;;;;;0.90;0.50;;;12.60;47.30;;;;;;5014353;28;20175;-50
2024/01/04 05:13:20;;;;;;;1.00;0.77;;;12.60;47.20;;;;;;5014264;28;20220;-48
2024/01/04 05:15:46;;;;;;;1.53;0.97;;;12.50;47.20;;;;;;5014461;28;20246;-51
2024/01/04 05:18:12;;;;;;;0.90;0.40;;;12.50;47.30;;;;;;5014115;28;20194;-52
2024/01/04 05:20:38;;;;;;;1.00;0.60;;;12.60;47.40;;;;;;5019582;28;20174;-48
2024/01/04 05:23:03;;;;;;;0.87;0.33;;;12.50;47.30;;;;;;5034026;28;20693;-49
2024/01/04 05:25:29;;;;;;;0.93;0.40;;;12.40;47.60;;;;;;5033789;28;20216;-50
2024/01/04 05:27:55;;;;;;;0.90;0.68;;;12.30;48.60;;;;;;5033925;28;20417;-50
2024/01/04 05:30:21;;;;;;;1.00;0.60;;;12.10;49.30;;;;;;5033647;28;20190;-48
2024/01/04 05:32:47;;;;;;;0.93;0.50;;;12.20;48.90;;;;;;5034170;28;20194;-52
2024/01/04 05:35:13;;;;;;;0.90;0.50;;;12.30;48.40;;;;;;5033684;28;20680;-47
2024/01/04 05:37:38;;;;;;;0.90;0.40;;;12.20;48.60;;;;;;5033538;28;20206;-51
2024/01/04 05:40:05;;;;;;;0.90;0.50;;;12.20;48.20;;;;;;5032970;28;20251;-50
2024/01/04 05:42:31;;;;;;;1.02;0.77;;;12.30;48.10;;;;;;5033593;28;20181;-48
2024/01/04 05:44:56;;;;;;;0.90;0.40;;;12.50;47.70;;;;;;5033571;28;20174;-48
2024/01/04 05:47:22;;;;;;;0.90;0.60;;;12.50;47.80;;;;;;5033662;28;20174;-53
2024/01/04 05:49:48;;;;;;;0.90;0.30;;;12.50;47.80;;;;;;5033069;28;20221;-47
2024/01/04 05:52:14;;;;;;;1.03;0.47;;;12.40;48.10;;;;;;5033213;28;20248;-51
2024/01/04 05:54:39;;;;;;;0.93;0.60;;;12.40;48.20;;;;;;5033092;28;20408;-50
2024/01/04 05:57:05;;;;;;;0.90;0.60;;;12.50;48.30;;;;;;5033303;28;20174;-47
2024/01/04 05:59:31;;;;;;;1.00;0.75;;;12.50;48.00;;;;;;5032707;28;20637;-51
2024/01/04 06:01:57;;;;;;;1.73;0.90;;;12.60;48.10;;;;;;5033314;28;20182;-50
2024/01/04 06:04:23;;;;;;;1.00;0.70;;;12.70;47.90;;;;;;5032996;28;20177;-47
2024/01/04 06:06:48;;;;;;;1.10;0.80;;;12.80;47.70;;;;;;5033179;28;20205;-50
2024/01/04 06:09:14;;;;;;;1.00;0.50;;;12.60;48.60;;;;;;5032582;28;20252;-47
2024/01/04 06:11:40;;;;;;;1.00;0.70;;;12.50;49.30;;;;;;5032906;28;20170;-53
2024/01/04 06:14:06;;;;;;;0.90;0.40;;;12.50;49.30;;;;;;5032855;28;20492;-46
2024/01/04 06:16:32;;;;;;;1.00;0.50;;;12.40;50.00;;;;;;5033033;28;20266;-49
2024/01/04 06:18:58;;;;;;;1.00;0.55;;;12.40;49.40;;;;;;5032515;28;20464;-51
2024/01/04 06:21:24;;;;;;;0.90;0.50;;;12.40;50.10;;;;;;5029307;28;20185;-47
2024/01/04 06:23:51;;;;;;;1.00;0.50;;;12.40;49.80;;;;;;5012856;28;20417;-51
2024/01/04 06:26:18;;;;;;;1.00;0.60;;;12.40;50.10;;;;;;5012973;28;20179;-48
2024/01/04 06:28:44;;;;;;;1.00;0.80;;;12.40;49.90;;;;;;5018737;28;20248;-48
2024/01/04 06:31:09;;;;;;;1.00;0.60;;;12.20;50.50;;;;;;5023186;28;20187;-50
2024/01/04 06:33:35;;;;;;;0.90;0.43;;;12.10;50.70;;;;;;5012891;28;20171;-50
2024/01/04 06:36:02;;;;;;;0.95;0.52;;;12.00;50.80;;;;;;5012872;28;20209;-49
2024/01/04 06:38:28;;;;;;;1.20;0.90;;;12.00;51.70;;;;;;5012281;28;20202;-45
2024/01/04 06:40:58;;;;;;;1.00;0.82;;;11.80;51.70;;;;;;5020109;28;20181;-51
2024/01/04 06:43:25;;;;;;;0.98;0.60;;;11.70;52.40;;;;;;5032507;28;20174;-51
2024/01/04 06:45:51;;;;;;;1.00;0.70;;;11.80;52.20;;;;;;5032542;28;20166;-47
2024/01/04 06:48:16;;;;;;;0.90;0.50;;;11.90;51.70;;;;;;5032247;28;20183;-49
2024/01/04 06:50:43;;;;;;;1.00;0.67;;;11.90;51.60;;;;;;5031948;28;20436;-51
2024/01/04 06:53:14;;;;;;;1.10;0.80;;;12.00;51.30;;;;;;5032219;28;20182;-52
2024/01/04 06:55:40;;;;;;;1.10;0.88;;;12.00;51.00;;;;;;5032391;28;20256;-48
2024/01/04 06:58:08;;;;;;;0.93;0.68;;;10.90;50.80;;;;;;5032203;28;20197;-52
2024/01/04 07:00:34;;;;;;;0.90;0.50;;;12.00;51.60;;;;;;5031965;28;20255;-47
2024/01/04 07:03:00;;;;;;;1.00;0.80;;;11.90;51.70;;;;;;5032175;28;20174;-47
2024/01/04 07:05:26;;;;;;;1.00;0.60;;;11.90;51.70;;;;;;5032239;28;20273;-53
2024/01/04 07:07:51;;;;;;;1.20;1.10;;;12.00;51.50;;;;;;5032299;28;20458;-48
2024/01/04 07:10:17;;;;;;;0.97;0.63;;;11.90;51.40;;;;;;5012744;28;20205;-47
2024/01/04 07:12:43;;;;;;;1.20;0.87;;;11.90;51.60;;;;;;5026286;28;20425;-49
2024/01/04 07:15:10;;;;;;;0.93;0.50;;;11.90;51.60;;;;;;5032036;28;20431;-47
2024/01/04 07:17:36;;;;;;;0.90;0.50;;;11.90;51.50;;;;;;5032021;28;20452;-49
2024/01/04 07:20:05;;;;;;;1.00;0.70;;;11.80;51.20;;;;;;5031508;28;20201;-54
2024/01/04 07:22:31;;;;;;;0.90;0.40;;;11.80;51.40;;;;;;5031855;28;20171;-47
2024/01/04 07:24:56;;;;;;;0.90;0.40;;;11.80;51.40;;;;;;5031945;28;20249;-47
2024/01/04 07:27:22;;;;;;;1.00;0.60;;;11.90;51.50;;;;;;5032059;28;20420;-54
2024/01/04 07:29:49;;;;;;;0.90;0.30;;;11.80;51.70;;;;;;5025258;28;20198;-49
2024/01/04 07:32:18;;;;;;;0.85;0.35;;;11.80;51.70;;;;;;5012250;28;20179;-46
2024/01/04 07:34:44;;;;;;;0.90;0.47;;;11.80;51.90;;;;;;5012252;28;20189;-48
2024/01/04 07:37:11;;;;;;;0.90;0.45;;;11.90;51.60;;;;;;5012254;28;20178;-53
2024/01/04 07:39:37;;;;;;;1.60;0.75;;;12.00;51.40;;;;;;5011879;28;20206;-49
2024/01/04 07:42:03;;;;;;;1.75;0.50;;;12.00;51.20;;;;;;5012252;28;20181;-48
2024/01/04 07:44:29;;;;;;;0.93;0.60;;;12.10;50.90;;;;;;5011948;28;20201;-50
2024/01/04 07:46:55;;;;;;;0.90;0.50;;;12.20;50.50;;;;;;5011976;28;20179;-50
2024/01/04 07:49:21;;;;;;;1.67;0.80;;;12.10;50.70;;;;;;5011643;28;20202;-47
2024/01/04 07:51:47;;;;;;;1.00;0.60;;;12.10;50.70;;;;;;5012235;28;20711;-51
2024/01/04 07:54:13;;;;;;;0.90;0.57;;;12.10;50.50;;;;;;5012032;28;20974;-49
2024/01/04 07:56:38;;;;;;;0.93;0.60;;;12.10;50.40;;;;;;5012244;28;20179;-48
2024/01/04 07:59:04;;;;;;;1.00;0.57;;;12.10;50.00;;;;;;5011642;28;20214;-50
2024/01/04 08:01:30;;;;;;;1.10;0.52;;;12.10;50.00;;;;;;5011965;28;20174;-52
2024/01/04 08:03:56;;;;;;;0.90;0.32;;;12.10;49.50;;;;;;5012007;28;20185;-48
2024/01/04 08:06:22;;;;;;;0.90;0.40;;;12.20;49.70;;;;;;5012012;28;20559;-47
2024/01/04 08:08:47;;;;;;;1.00;0.50;;;12.20;49.40;;;;;;5011654;28;20195;-48
2024/01/04 08:11:13;;;;;;;0.93;0.50;;;12.30;49.10;;;;;;5011925;28;20183;-48
2024/01/04 08:13:39;;;;;;;0.90;0.30;;;12.20;49.00;;;;;;5011740;28;20210;-52
2024/01/04 08:16:06;;;;;;;0.90;0.50;;;12.20;48.90;;;;;;5011840;28;20733;-48
2024/01/04 08:18:32;;;;;;;0.90;0.40;;;12.00;49.80;;;;;;5011666;28;22118;-51
2024/01/04 08:20:58;;;;;;;1.83;0.40;;;12.10;49.70;;;;;;5011990;28;20170;-52
2024/01/04 08:23:23;;;;;;;0.90;0.47;;;12.10;49.70;;;;;;5014152;28;20436;-46
2024/01/04 08:25:49;;;;;;;0.83;0.30;;;12.10;49.20;;;;;;5015401;28;20258;-50
2024/01/04 08:28:15;;;;;;;1.00;0.70;;;11.40;49.10;;;;;;5015380;28;20252;-47
2024/01/04 08:30:42;;;;;;;1.00;0.60;;;12.10;49.60;;;;;;4997839;28;20265;-53
2024/01/04 08:33:08;;;;;;;0.90;0.40;;;12.10;49.10;;;;;;5015399;28;20175;-54
2024/01/04 08:35:34;;;;;;;1.00;0.70;;;12.10;48.60;;;;;;5015104;28;20198;-47
2024/01/04 08:38:00;;;;;;;0.90;0.43;;;12.10;48.00;;;;;;5015158;28;20202;-50
2024/01/04 08:40:27;;;;;;;0.80;0.20;;;12.20;46.50;;;;;;5026060;28;20258;-53
2024/01/04 08:42:52;;;;;;;0.90;0.40;;;12.00;47.30;;;;;;5034856;28;20174;-47
2024/01/04 08:45:18;;;;;;;1.20;0.43;;;12.00;47.80;;;;;;5034815;28;20546;-48
2024/01/04 08:47:44;;;;;;;1.20;0.63;;;12.00;47.70;;;;;;5034840;28;20200;-48
2024/01/04 08:50:11;;;;;;;1.17;0.70;;;12.10;46.80;;;;;;5034432;28;20202;-51
2024/01/04 08:52:37;;;;;;;0.90;0.40;;;12.10;46.40;;;;;;5034753;28;20178;-48
2024/01/04 08:55:03;;;;;;;1.27;0.77;;;12.30;47.20;;;;;;5034487;28;20189;-47
2024/01/04 08:57:30;;;;;;;0.98;0.60;;;12.20;45.90;;;;;;5034662;28;20309;-54
2024/01/04 08:59:56;;;;;;;0.90;0.40;;;12.30;46.20;;;;;;5034137;28;20290;-46
2024/01/04 09:02:22;;;;;;;0.90;0.40;;;12.40;45.00;;;;;;5034590;28;21437;-53
2024/01/04 09:04:47;;;;;;;1.30;0.67;;;12.30;45.20;;;;;;5034654;28;20174;-53
2024/01/04 09:07:14;;;;;;;1.40;0.98;;;12.20;45.60;;;;;;5034276;28;20178;-48
2024/01/04 09:09:40;;;;;;;0.90;0.50;;;12.30;45.20;;;;;;5034010;28;20189;-49
2024/01/04 09:12:06;;;;;;;0.90;0.40;;;12.30;44.40;;;;;;5034495;28;20201;-54
2024/01/04 09:14:32;;;;;;;1.00;0.63;;;12.40;45.30;;;;;;5034298;28;20555;-46
2024/01/04 09:16:59;;;;;;;0.90;0.47;;;12.40;43.80;;;;;;5034382;28;20839;-50
2024/01/04 09:19:24;;;;;;;0.90;0.40;;;12.40;44.20;;;;;;5033988;28;20210;-53
2024/01/04 09:21:51;;;;;;;1.00;0.60;;;12.60;44.30;;;;;;5034272;28;20591;-47
2024/01/04 09:24:18;;;;;;;0.98;0.60;;;12.90;43.00;;;;;;5023993;28;20582;-46
2024/01/04 09:26:45;;;;;;;0.90;0.50;;;12.90;42.70;;;;;;5014292;28;20186;-53
2024/01/04 09:29:13;;;;;;;0.85;0.45;;;12.90;41.90;;;;;;5013888;28;20268;-53
2024/01/04 09:31:39;;;;;;;0.90;0.50;;;12.90;42.30;;;;;;5013139;28;20185;-48
2024/01/04 09:34:06;;;;;;;0.90;0.40;;;13.20;42.30;;;;;;5013126;28;20190;-49
2024/01/04 09:36:32;;;;;;;1.02;0.68;;;13.20;40.90;;;;;;5014258;28;20544;-52
2024/01/04 09:38:58;;;;;;;1.00;0.73;;;13.30;41.70;;;;;;5013554;28;20218;-48
2024/01/04 09:41:27;;;;;;;0.80;0.25;;;13.40;40.80;;;;;;5013966;28;20760;-48
2024/01/04 09:44:00;;;;;;;1.00;0.60;;;13.40;39.60;;;;;;5013852;28;20167;-52
2024/01/04 09:46:32;;;;;;;1.00;0.57;;;13.20;40.40;;;;;;5013917;28;20182;-50
2024/01/04 09:49:01;;;;;;;1.00;0.50;;;13.10;40.90;;;;;;5013546;28;20205;-47
2024/01/04 09:51:33;;;;;;;0.95;0.55;;;13.10;41.20;;;;;;5013606;28;20796;-50
2024/01/04 09:54:01;;;;;;;1.45;1.27;;;13.30;40.40;;;;;;5029583;28;20185;-51
2024/01/04 09:56:28;;;;;;;1.00;0.73;;;13.20;40.00;;;;;;5033376;28;20193;-47
2024/01/04 09:58:54;;;;;;;0.90;0.40;;;13.20;40.40;;;;;;5033153;28;20217;-53
2024/01/04 10:01:30;;;;;;;1.00;0.60;;;13.10;39.20;;;;;;5033239;28;20186;-48
2024/01/04 10:04:00;;;;;;;1.10;0.80;;;12.90;40.70;;;;;;5033304;28;20401;-48
2024/01/04 10:06:32;;;;;;;1.00;0.60;;;13.00;40.40;;;;;;5021940;28;20179;-50
2024/01/04 10:09:04;;;;;;;1.38;1.10;;;13.20;40.20;;;;;;5013154;28;20208;-48
2024/01/04 10:11:37;;;;;;;1.38;1.00;;;13.60;39.90;;;;;;5013271;28;20735;-48
2024/01/04 10:14:03;;;;;;;1.08;0.70;;;14.40;37.40;;;;;;5013509;28;20187;-51
2024/01/04 10:16:30;;;;;;;0.90;0.40;;;15.40;36.80;;;;;;5013430;28;20185;-48
2024/01/04 10:19:00;;;;;;;0.90;0.40;;;16.00;34.50;;;;;;5013060;28;20256;-48
2024/01/04 10:21:34;;;;;;;0.90;0.40;;;15.70;35.10;;;;;;5012964;28;20183;-52
2024/01/04 10:24:01;;;;;;;1.10;0.93;;;15.70;35.00;;;;;;5013396;28;20667;-47
2024/01/04 10:26:29;;;;;;;1.00;0.68;;;15.90;35.40;;;;;;5013326;28;20181;-47
2024/01/04 10:28:56;;;;;;;1.10;0.73;;;16.00;35.40;;;;;;5012794;28;20269;-54
2024/01/04 10:31:22;;;;;;;1.20;0.93;;;16.30;34.70;;;;;;5015682;28;20175;-47
2024/01/04 10:34:01;;;;;;;0.90;0.50;;;16.10;34.10;;;;;;5032671;28;20173;-49
2024/01/04 10:36:32;;;;;;;1.00;0.55;;;15.20;35.70;;;;;;5032653;28;20178;-51
2024/01/04 10:39:00;;;;;;;1.00;0.60;;;14.50;36.90;;;;;;5016979;28;20210;-46
2024/01/04 10:41:28;;;;;;;1.00;0.52;;;14.10;38.50;;;;;;5012582;28;20171;-53
2024/01/04 10:44:07;;;;;;;1.00;0.60;;;13.90;38.50;;;;;;5012905;28;20182;-47
2024/01/04 10:46:36;;;;;;;0.90;0.43;;;13.70;40.20;;;;;;5012746;28;20174;-48
2024/01/04 10:49:02;;;;;;;1.00;0.68;;;13.60;41.20;;;;;;5012621;28;20202;-50
2024/01/04 10:51:31;;;;;;;1.00;0.55;;;13.20;42.60;;;;;;5012746;28;20174;-52
2024/01/04 10:54:01;;;;;;;0.90;0.50;;;13.20;42.90;;;;;;5028049;28;20225;-53
2024/01/04 10:56:32;;;;;;;1.00;0.60;;;13.20;43.60;;;;;;5032249;28;20548;-46
2024/01/04 10:58:59;;;;;;;0.90;0.40;;;12.90;45.20;;;;;;5032252;28;20232;-48
2024/01/04 11:01:25;;;;;;;0.90;0.60;;;12.70;46.70;;;;;;5032088;28;20540;-48
2024/01/04 11:03:55;;;;;;;0.95;0.50;;;12.80;46.80;;;;;;5017710;28;20589;-55
2024/01/04 11:06:23;;;;;;;1.00;0.50;;;12.90;47.20;;;;;;5012434;28;20194;-54
2024/01/04 11:08:50;;;;;;;2.03;0.80;;;13.00;46.40;;;;;;5012271;28;20683;-48
2024/01/04 11:11:17;;;;;;;1.15;0.70;;;13.10;46.80;;;;;;5012343;28;20194;-52
2024/01/04 11:13:43;;;;;;;0.93;0.40;;;13.00;46.60;;;;;;5012502;28;20237;-48
2024/01/04 11:16:44;;;;;;;0.90;0.30;;;12.80;46.90;;;;;;5012227;28;20775;-48
2024/01/04 11:19:22;;;;;;;0.90;0.50;;;12.60;46.90;;;;;;5011933;28;20461;-53
2024/01/04 11:22:21;;;;;;;1.00;0.73;;;12.50;47.70;;;;;;5012161;28;20648;-47
2024/01/04 11:25:15;;;;;;;1.30;0.50;;;12.40;48.30;;;;;;5012280;28;20230;-50
2024/01/04 11:27:41;;;;;;;1.10;0.85;;;12.30;48.60;;;;;;4994636;28;20186;-54
2024/01/04 11:30:09;;;;;;;1.00;0.65;;;12.20;49.60;;;;;;5011699;28;20241;-47
2024/01/04 11:32:35;;;;;;;1.35;0.98;;;12.10;49.70;;;;;;5012141;28;20187;-53
2024/01/04 11:35:02;;;;;;;0.90;0.40;;;12.10;50.40;;;;;;5012057;28;20206;-52
2024/01/04 11:37:28;;;;;;;1.60;0.75;;;12.10;50.50;;;;;;5011968;28;20409;-48
2024/01/04 11:40:03;;;;;;;1.00;0.60;;;12.10;50.50;;;;;;5011748;28;20265;-49
2024/01/04 11:42:42;;;;;;;1.00;0.73;;;12.10;50.10;;;;;;5011814;28;20401;-51
2024/01/04 11:45:18;;;;;;;0.95;0.60;;;12.10;50.50;;;;;;5012235;28;20591;-48
2024/01/04 11:47:46;;;;;;;0.90;0.40;;;12.20;50.00;;;;;;5012052;28;20548;-48
2024/01/04 11:50:17;;;;;;;1.08;0.60;;;12.20;49.60;;;;;;5011608;28;20205;-47
2024/01/04 11:52:46;;;;;;;1.20;0.85;;;12.20;49.90;;;;;;5012245;28;20272;-53
2024/01/04 11:55:25;;;;;;;0.90;0.40;;;12.20;49.80;;;;;;5029122;28;20751;-48
2024/01/04 11:58:04;;;;;;;1.10;0.52;;;12.30;49.40;;;;;;5033528;28;20199;-52
2024/01/04 12:00:34;;;;;;;1.00;0.63;;;12.40;48.80;;;;;;5035213;28;20190;-48
2024/01/04 12:03:01;;;;;;;1.00;0.60;;;12.20;49.00;;;;;;5035323;28;20656;-49
2024/01/04 12:05:28;;;;;;;0.90;0.40;;;12.10;49.10;;;;;;5035218;28;20180;-53
2024/01/04 12:07:54;;;;;;;0.95;0.50;;;12.10;49.30;;;;;;5035279;28;20174;-48
2024/01/04 12:10:20;;;;;;;0.90;0.43;;;12.10;48.80;;;;;;5035069;28;20206;-47
2024/01/04 12:12:48;;;;;;;1.02;0.82;;;12.00;48.80;;;;;;5035083;28;20954;-52
2024/01/04 12:15:20;;;;;;;1.10;0.88;;;11.80;48.40;;;;;;5035164;28;20201;-52
2024/01/04 12:17:45;;;;;;;1.85;0.98;;;11.70;48.70;;;;;;5034895;28;20197;-49
2024/01/04 12:20:12;;;;;;;1.00;0.67;;;11.70;49.70;;;;;;5034879;28;20214;-54
2024/01/04 12:22:41;;;;;;;0.90;0.50;;;11.80;49.60;;;;;;5035184;28;20420;-47
2024/01/04 12:25:08;;;;;;;0.98;0.63;;;11.90;49.10;;;;;;5034962;28;20178;-48
2024/01/04 12:27:36;;;;;;;1.00;0.68;;;11.80;49.80;;;;;;5034961;28;20243;-54
2024/01/04 12:30:11;;;;;;;0.95;0.45;;;11.70;49.50;;;;;;5034602;28;20273;-48
2024/01/04 12:32:39;;;;;;;0.90;0.40;;;11.70;49.60;;;;;;5034725;28;20170;-46
2024/01/04 12:35:05;;;;;;;0.80;0.30;;;11.70;50.00;;;;;;5034941;28;20186;-50
2024/01/04 12:37:31;;;;;;;0.90;0.40;;;11.80;49.60;;;;;;5034742;28;20249;-48
2024/01/04 12:40:07;;;;;;;0.90;0.50;;;11.90;49.40;;;;;;5034310;28;20304;-54
2024/01/04 12:42:34;;;;;;;0.95;0.57;;;12.00;49.10;;;;;;5007048;28;20440;-47
2024/01/04 12:45:00;;;;;;;0.90;0.40;;;12.10;48.60;;;;;;5014831;28;20178;-50
2024/01/04 12:47:27;;;;;;;1.75;0.95;;;12.20;47.80;;;;;;5014702;28;20186;-48